Time;durP1;ratioP1;P1;durP2;ratioP2;P2;SDS_P1;SDS_P2;PMS_P1;PMS_P2;Temp;Humidity;BMP_temperature;BMP_pressure;BME280_temperature;BME280_humidity;BME280_pressure;Samples;Min_cycle;Max_cycle;Signal;HPM_P1;HPM_P2
2023/10/23 00:01:41;;;;;;;11.63;3.97;;;;;;;;;;5062066;28;20048;-75
2023/10/23 00:04:12;;;;;;;14.00;4.43;;;;;;;;;;5063616;28;20045;-77
2023/10/23 00:06:43;;;;;;;10.65;4.70;;;;;;;;;;5063449;28;20119;-73
2023/10/23 00:09:14;;;;;;;16.77;4.30;;;;;;;;;;5062424;28;20049;-78
2023/10/23 00:11:44;;;;;;;17.98;3.90;;;;;;;;;;5062039;28;20049;-76
2023/10/23 00:14:15;;;;;;;10.38;3.83;;;;;;;;;;5062372;28;20048;-74
2023/10/23 00:16:46;;;;;;;17.58;3.95;;;;;;;;;;5061487;28;20053;-75
2023/10/23 00:19:16;;;;;;;13.50;3.97;;;;;;;;;;5062256;28;20491;-76
2023/10/23 00:21:45;;;;;;;9.65;3.63;;;;;;;;;;5062850;28;20601;-78
2023/10/23 00:24:16;;;;;;;10.40;3.38;;;;;;;;;;5063032;28;20039;-74
2023/10/23 00:26:46;;;;;;;11.57;3.72;;;;;;;;;;5062325;28;20055;-76
2023/10/23 00:29:18;;;;;;;10.88;3.45;;;;;;;;;;5063105;28;20059;-72
2023/10/23 00:31:49;;;;;;;7.80;3.58;;;;;;;;;;5062637;28;20052;-78
2023/10/23 00:34:18;;;;;;;13.65;3.47;;;;;;;;;;5063089;28;20047;-73
2023/10/23 00:36:49;;;;;;;9.85;3.22;;;;;;;;;;5062221;28;20048;-72
2023/10/23 00:39:20;;;;;;;8.90;3.90;;;;;;;;;;5062154;28;20389;-75
2023/10/23 00:41:50;;;;;;;7.85;3.45;;;;;;;;;;5062761;28;20044;-75
2023/10/23 00:44:36;;;;;;;7.78;3.40;;;;;;;;;;5062521;28;20051;-75
2023/10/23 00:47:11;;;;;;;11.60;3.92;;;;;;;;;;5063742;28;20044;-76
2023/10/23 00:49:42;;;;;;;7.82;3.60;;;;;;;;;;5060511;28;20052;-77
2023/10/23 00:52:12;;;;;;;8.40;4.38;;;;;;;;;;5062868;28;20044;-77
2023/10/23 00:54:43;;;;;;;11.82;4.38;;;;;;;;;;5077691;28;20044;-74
2023/10/23 00:57:15;;;;;;;12.32;4.38;;;;;;;;;;5061622;28;20044;-76
2023/10/23 00:59:47;;;;;;;14.40;4.30;;;;;;;;;;5061982;28;20048;-76
2023/10/23 01:02:20;;;;;;;9.57;4.47;;;;;;;;;;5060573;28;20058;-75
2023/10/23 01:04:52;;;;;;;10.90;5.00;;;;;;;;;;5060850;28;20037;-74
2023/10/23 01:07:23;;;;;;;16.75;4.63;;;;;;;;;;5058684;28;20787;-76
2023/10/23 01:09:54;;;;;;;10.55;3.35;;;;;;;;;;5057570;28;20067;-74
2023/10/23 01:12:27;;;;;;;7.57;3.63;;;;;;;;;;5061473;28;20037;-75
2023/10/23 01:14:58;;;;;;;11.63;4.10;;;;;;;;;;5060172;28;20406;-75
2023/10/23 01:17:36;;;;;;;10.52;3.78;;;;;;;;;;5060565;28;20055;-76
2023/10/23 01:20:30;;;;;;;8.07;3.47;;;;;;;;;;5062059;28;20036;-77
2023/10/23 01:26:49;;;;;;;13.73;3.80;;;;;;;;;;5061241;28;20486;-75
2023/10/23 01:30:08;;;;;;;9.05;3.22;;;;;;;;;;5058815;28;20044;-75
2023/10/23 01:33:10;;;;;;;12.38;3.63;;;;;;;;;;5019107;28;20058;-74
2023/10/23 01:35:41;;;;;;;12.27;3.92;;;;;;;;;;5018943;28;20069;-75
2023/10/23 01:38:43;;;;;;;10.00;3.72;;;;;;;;;;5019464;28;20046;-76
2023/10/23 01:41:39;;;;;;;8.18;4.00;;;;;;;;;;5019167;28;20056;-76
2023/10/23 01:44:09;;;;;;;11.88;3.92;;;;;;;;;;5019303;28;20045;-75
2023/10/23 01:47:17;;;;;;;18.23;4.43;;;;;;;;;;5020524;28;20041;-77
2023/10/23 01:50:36;;;;;;;17.88;4.45;;;;;;;;;;5006068;28;20041;-76
2023/10/23 01:53:18;;;;;;;13.05;4.05;;;;;;;;;;5019358;28;20053;-76
2023/10/23 01:55:48;;;;;;;12.52;3.92;;;;;;;;;;5023590;28;20041;-77
2023/10/23 02:01:37;;;;;;;10.43;4.20;;;;;;;;;;5005691;28;20076;-77
2023/10/23 02:04:40;;;;;;;10.20;3.75;;;;;;;;;;4992939;28;20467;-76
2023/10/23 02:10:44;;;;;;;10.70;3.88;;;;;;;;;;5022299;28;20045;-75
2023/10/23 02:13:31;;;;;;;9.45;4.07;;;;;;;;;;5005276;28;20049;-76
2023/10/23 02:16:15;;;;;;;10.40;4.25;;;;;;;;;;5004082;28;20516;-74
2023/10/23 02:18:59;;;;;;;12.60;4.40;;;;;;;;;;5003961;28;20061;-73
2023/10/23 02:21:49;;;;;;;8.10;4.38;;;;;;;;;;5021527;28;20057;-77
2023/10/23 02:24:32;;;;;;;11.00;4.63;;;;;;;;;;5065055;28;20048;-76
2023/10/23 02:27:20;;;;;;;14.20;5.18;;;;;;;;;;5065064;28;20056;-73
2023/10/23 02:30:04;;;;;;;10.65;4.38;;;;;;;;;;5064374;28;20487;-74
2023/10/23 02:32:50;;;;;;;13.27;4.72;;;;;;;;;;5064375;28;20048;-78
2023/10/23 02:35:36;;;;;;;9.20;4.85;;;;;;;;;;5063207;28;20060;-75
2023/10/23 02:38:54;;;;;;;7.50;4.03;;;;;;;;;;5064959;28;20071;-74
2023/10/23 02:41:32;;;;;;;14.85;4.28;;;;;;;;;;5061525;28;20048;-76
2023/10/23 02:44:10;;;;;;;12.60;4.53;;;;;;;;;;5062868;28;20060;-73
2023/10/23 02:46:41;;;;;;;9.10;4.40;;;;;;;;;;5063828;28;20049;-74
2023/10/23 02:52:22;;;;;;;8.93;4.22;;;;;;;;;;5064381;28;20522;-81
2023/10/23 02:55:16;;;;;;;10.18;4.13;;;;;;;;;;5062760;28;20048;-77
2023/10/23 02:57:48;;;;;;;14.43;4.25;;;;;;;;;;5061533;28;20048;-76
2023/10/23 03:00:20;;;;;;;7.75;4.32;;;;;;;;;;5064755;28;20040;-75
2023/10/23 03:03:28;;;;;;;11.52;4.68;;;;;;;;;;5064577;28;20048;-73
2023/10/23 03:06:39;;;;;;;9.30;4.15;;;;;;;;;;5064195;28;20048;-74
2023/10/23 03:09:56;;;;;;;6.78;4.13;;;;;;;;;;5064630;28;20071;-75
2023/10/23 03:12:27;;;;;;;16.17;5.47;;;;;;;;;;5064425;28;20387;-74
2023/10/23 03:14:57;;;;;;;11.50;4.72;;;;;;;;;;5064426;28;20045;-77
2023/10/23 03:17:47;;;;;;;8.57;3.97;;;;;;;;;;5064231;28;20053;-74
2023/10/23 03:20:36;;;;;;;11.10;4.55;;;;;;;;;;5068298;28;20056;-76
2023/10/23 03:23:08;;;;;;;9.43;4.30;;;;;;;;;;5064489;28;20036;-75
2023/10/23 03:25:45;;;;;;;11.23;4.70;;;;;;;;;;5064638;28;20822;-75
2023/10/23 03:28:42;;;;;;;8.90;5.30;;;;;;;;;;5050628;28;20036;-74
2023/10/23 03:31:46;;;;;;;9.35;4.40;;;;;;;;;;5063635;28;20048;-74
2023/10/23 03:35:00;;;;;;;11.30;4.07;;;;;;;;;;5062439;28;20055;-73
2023/10/23 03:38:24;;;;;;;8.90;4.25;;;;;;;;;;5065760;28;20044;-76
2023/10/23 03:41:36;;;;;;;12.00;4.45;;;;;;;;;;5061558;28;20048;-74
2023/10/23 03:44:59;;;;;;;9.43;4.50;;;;;;;;;;5063258;28;20169;-73
2023/10/23 03:48:26;;;;;;;10.18;4.03;;;;;;;;;;5066844;28;21026;-76
2023/10/23 03:57:49;;;;;;;13.05;4.70;;;;;;;;;;5063278;28;20139;-76
2023/10/23 04:01:02;;;;;;;9.35;3.88;;;;;;;;;;5063722;28;20040;-74
2023/10/23 04:04:47;;;;;;;11.82;3.75;;;;;;;;;;5062366;28;20067;-73
2023/10/23 04:08:02;;;;;;;12.70;4.80;;;;;;;;;;5062797;28;20049;-75
2023/10/23 04:11:04;;;;;;;9.57;4.25;;;;;;;;;;5061748;28;20041;-75
2023/10/23 04:13:47;;;;;;;10.10;3.80;;;;;;;;;;5059904;28;20044;-75
2023/10/23 04:16:51;;;;;;;12.05;4.53;;;;;;;;;;5062508;28;20419;-73
2023/10/23 04:19:39;;;;;;;8.57;3.88;;;;;;;;;;5061165;28;20410;-77
2023/10/23 04:22:11;;;;;;;8.25;3.90;;;;;;;;;;5062636;28;20052;-73
2023/10/23 04:25:10;;;;;;;7.70;4.30;;;;;;;;;;5061104;28;20403;-75
2023/10/23 04:28:04;;;;;;;8.60;3.70;;;;;;;;;;5062673;28;20060;-75
2023/10/23 04:30:48;;;;;;;11.73;4.30;;;;;;;;;;5045695;28;20059;-74
2023/10/23 04:33:33;;;;;;;14.90;4.38;;;;;;;;;;5062965;28;20490;-77
2023/10/23 04:36:16;;;;;;;9.77;3.95;;;;;;;;;;5062417;28;20048;-75
2023/10/23 04:38:59;;;;;;;7.45;3.65;;;;;;;;;;5061866;28;20426;-77
2023/10/23 04:41:43;;;;;;;12.40;4.22;;;;;;;;;;5062791;28;20048;-73
2023/10/23 04:44:27;;;;;;;8.68;4.40;;;;;;;;;;5061930;28;20048;-75
2023/10/23 04:47:10;;;;;;;10.35;4.40;;;;;;;;;;5062051;28;20051;-75
2023/10/23 04:49:53;;;;;;;12.73;4.72;;;;;;;;;;5063168;28;20045;-76
2023/10/23 04:52:37;;;;;;;6.90;4.10;;;;;;;;;;5062047;28;20051;-75
2023/10/23 04:55:21;;;;;;;10.05;3.83;;;;;;;;;;5061794;28;20064;-73
2023/10/23 04:58:06;;;;;;;13.80;3.85;;;;;;;;;;5062077;28;20049;-73
2023/10/23 05:00:46;;;;;;;12.00;4.00;;;;;;;;;;5062699;28;20033;-74
2023/10/23 05:03:23;;;;;;;10.35;3.90;;;;;;;;;;5060955;28;20044;-74
2023/10/23 05:05:53;;;;;;;11.60;4.40;;;;;;;;;;5060205;28;20060;-74
2023/10/23 05:08:23;;;;;;;13.38;4.38;;;;;;;;;;5061856;28;20064;-76
2023/10/23 05:11:34;;;;;;;11.95;3.65;;;;;;;;;;5044271;28;20064;-76
2023/10/23 05:14:12;;;;;;;11.52;3.90;;;;;;;;;;5059718;28;20063;-77
2023/10/23 05:17:34;;;;;;;8.10;4.30;;;;;;;;;;5062809;28;20047;-76
2023/10/23 05:20:34;;;;;;;11.88;4.47;;;;;;;;;;5061993;28;20049;-75
2023/10/23 05:23:11;;;;;;;11.88;4.32;;;;;;;;;;5061922;28;20063;-75
2023/10/23 05:25:43;;;;;;;6.95;4.22;;;;;;;;;;5061929;28;20040;-77
2023/10/23 05:28:15;;;;;;;10.20;4.38;;;;;;;;;;5061185;28;20047;-76
2023/10/23 05:30:45;;;;;;;10.30;4.55;;;;;;;;;;5062347;28;20067;-73
2023/10/23 05:33:15;;;;;;;12.70;4.57;;;;;;;;;;5061915;28;20044;-74
2023/10/23 05:36:31;;;;;;;11.82;4.15;;;;;;;;;;5062231;28;20044;-74
2023/10/23 05:39:02;;;;;;;10.18;4.03;;;;;;;;;;5060352;28;20063;-73
2023/10/23 05:41:40;;;;;;;14.57;4.20;;;;;;;;;;5061838;28;20391;-76
2023/10/23 05:44:46;;;;;;;12.13;4.00;;;;;;;;;;5058686;28;20053;-75
2023/10/23 05:47:48;;;;;;;13.15;3.83;;;;;;;;;;5058924;28;20060;-76
2023/10/23 05:50:51;;;;;;;;;;;;;;;;;;5043412;28;20041;-73
2023/10/23 05:53:58;;;;;;;15.32;4.35;;;;;;;;;;5056880;28;19924;-73
2023/10/23 05:56:59;;;;;;;12.07;4.45;;;;;;;;;;5059196;28;20601;-76
2023/10/23 05:59:33;;;;;;;11.07;4.63;;;;;;;;;;5058947;28;20049;-77
2023/10/23 06:02:03;;;;;;;16.65;4.47;;;;;;;;;;5058839;28;20422;-76
2023/10/23 06:04:50;;;;;;;15.85;4.57;;;;;;;;;;5059599;28;20048;-74
2023/10/23 06:07:22;;;;;;;11.88;4.65;;;;;;;;;;5040483;28;20401;-72
2023/10/23 06:10:20;;;;;;;9.48;4.88;;;;;;;;;;5059537;28;20049;-75
2023/10/23 06:13:00;;;;;;;10.55;4.45;;;;;;;;;;5058995;28;20044;-74
2023/10/23 06:15:51;;;;;;;11.93;4.50;;;;;;;;;;5042284;28;20056;-74
2023/10/23 06:18:43;;;;;;;13.25;4.40;;;;;;;;;;5053303;28;20388;-74
2023/10/23 06:21:13;;;;;;;9.88;4.55;;;;;;;;;;5061448;28;20040;-74
2023/10/23 06:23:44;;;;;;;11.75;4.68;;;;;;;;;;5061583;28;20048;-73
2023/10/23 06:26:48;;;;;;;9.98;4.80;;;;;;;;;;5058800;28;20518;-75
2023/10/23 06:30:07;;;;;;;8.80;4.78;;;;;;;;;;5061121;28;20052;-74
2023/10/23 06:33:03;;;;;;;10.20;4.43;;;;;;;;;;5060764;28;20059;-73
2023/10/23 06:36:14;;;;;;;11.65;4.50;;;;;;;;;;5064852;28;20415;-74
2023/10/23 06:38:45;;;;;;;10.95;4.70;;;;;;;;;;5065385;28;20048;-75
2023/10/23 06:41:16;;;;;;;8.48;5.20;;;;;;;;;;5065460;28;20047;-75
2023/10/23 06:43:46;;;;;;;17.45;6.25;;;;;;;;;;5064649;28;20044;-75
2023/10/23 06:46:17;;;;;;;7.50;4.57;;;;;;;;;;5065166;28;20041;-75
2023/10/23 06:48:52;;;;;;;10.10;4.28;;;;;;;;;;5060743;28;20510;-76
2023/10/23 06:51:23;;;;;;;10.20;4.63;;;;;;;;;;5064715;28;20045;-76
2023/10/23 06:53:54;;;;;;;10.10;4.50;;;;;;;;;;5063001;28;20055;-75
2023/10/23 06:56:55;;;;;;;8.40;4.13;;;;;;;;;;5063741;28;20040;-74
2023/10/23 06:59:39;;;;;;;8.77;4.53;;;;;;;;;;5061273;28;20405;-75
2023/10/23 07:02:10;;;;;;;19.75;5.07;;;;;;;;;;5064112;28;20039;-75
2023/10/23 07:04:43;;;;;;;8.45;4.63;;;;;;;;;;5062329;28;20052;-74
2023/10/23 07:07:14;;;;;;;11.85;5.03;;;;;;;;;;5064813;28;20040;-74
2023/10/23 07:10:31;;;;;;;11.38;4.85;;;;;;;;;;5064164;28;20056;-76
2023/10/23 07:13:07;;;;;;;11.45;4.68;;;;;;;;;;5063983;28;20065;-76
2023/10/23 07:15:50;;;;;;;11.05;4.57;;;;;;;;;;5064915;28;20044;-73
2023/10/23 07:18:21;;;;;;;14.07;5.13;;;;;;;;;;5063808;28;20055;-77
2023/10/23 07:20:59;;;;;;;8.68;4.22;;;;;;;;;;5063844;28;20040;-76
2023/10/23 07:23:31;;;;;;;9.73;4.15;;;;;;;;;;5046926;28;20398;-73
2023/10/23 07:26:10;;;;;;;11.32;4.60;;;;;;;;;;5063027;28;20044;-75
2023/10/23 07:29:02;;;;;;;19.67;5.10;;;;;;;;;;5064275;28;20049;-75
2023/10/23 07:31:40;;;;;;;10.57;4.40;;;;;;;;;;5060883;28;20057;-74
2023/10/23 07:34:27;;;;;;;14.15;4.78;;;;;;;;;;5063304;28;20057;-77
2023/10/23 07:37:11;;;;;;;12.27;5.10;;;;;;;;;;5063356;28;20052;-76
2023/10/23 07:39:47;;;;;;;19.00;5.68;;;;;;;;;;5062045;28;20494;-73
2023/10/23 07:42:41;;;;;;;10.73;4.80;;;;;;;;;;5063376;28;20052;-75
2023/10/23 07:45:44;;;;;;;10.57;4.15;;;;;;;;;;5061435;28;20044;-75
2023/10/23 07:48:55;;;;;;;11.35;4.30;;;;;;;;;;5062926;28;20616;-73
2023/10/23 07:51:26;;;;;;;13.77;3.78;;;;;;;;;;5059174;28;20044;-74
2023/10/23 07:53:56;;;;;;;12.73;4.35;;;;;;;;;;5063664;28;20513;-76
2023/10/23 07:56:26;;;;;;;9.30;4.38;;;;;;;;;;5064540;28;20044;-76
2023/10/23 07:58:58;;;;;;;8.00;4.32;;;;;;;;;;5063259;28;20115;-75
2023/10/23 08:01:31;;;;;;;9.35;4.38;;;;;;;;;;5063873;28;20040;-75
2023/10/23 08:04:06;;;;;;;12.85;5.45;;;;;;;;;;5064297;28;20394;-75
2023/10/23 08:07:13;;;;;;;12.40;4.97;;;;;;;;;;5062667;28;20051;-76
2023/10/23 08:09:52;;;;;;;9.10;5.18;;;;;;;;;;5063120;28;20060;-76
2023/10/23 08:12:23;;;;;;;12.90;5.22;;;;;;;;;;5062819;28;20434;-76
2023/10/23 08:14:53;;;;;;;13.00;5.07;;;;;;;;;;5061566;28;20045;-76
2023/10/23 08:17:23;;;;;;;12.00;5.18;;;;;;;;;;5062784;28;20064;-75
2023/10/23 08:20:10;;;;;;;9.48;4.82;;;;;;;;;;5061827;28;20509;-77
2023/10/23 08:22:44;;;;;;;11.57;5.13;;;;;;;;;;5060590;28;20051;-73
2023/10/23 08:25:23;;;;;;;10.88;4.20;;;;;;;;;;5062056;28;20060;-74
2023/10/23 08:27:55;;;;;;;18.33;4.63;;;;;;;;;;5059755;28;20075;-74
2023/10/23 08:30:52;;;;;;;17.13;5.15;;;;;;;;;;5063310;28;20052;-76
2023/10/23 08:33:23;;;;;;;14.32;5.05;;;;;;;;;;5061940;28;20052;-74
2023/10/23 08:36:03;;;;;;;18.48;9.30;;;;;;;;;;5063395;28;20045;-75
2023/10/23 08:39:06;;;;;;;9.93;5.43;;;;;;;;;;5044649;28;20405;-74
2023/10/23 08:45:01;;;;;;;20.10;5.75;;;;;;;;;;5062001;28;20045;-74
2023/10/23 08:47:31;;;;;;;12.13;5.25;;;;;;;;;;5062803;28;20041;-76
2023/10/23 08:50:03;;;;;;;13.90;5.10;;;;;;;;;;5062826;28;20511;-72
2023/10/23 08:52:45;;;;;;;15.18;6.22;;;;;;;;;;5062998;28;20566;-73
2023/10/23 08:55:16;;;;;;;13.40;6.63;;;;;;;;;;5061747;28;20040;-75
2023/10/23 08:58:18;;;;;;;21.45;6.85;;;;;;;;;;5060391;28;20526;-75
2023/10/23 09:00:58;;;;;;;20.45;7.53;;;;;;;;;;5060247;28;20408;-76
2023/10/23 09:03:44;;;;;;;15.48;7.60;;;;;;;;;;5062433;28;20052;-76
2023/10/23 09:06:45;;;;;;;18.70;7.95;;;;;;;;;;5062247;28;20459;-75
2023/10/23 09:09:17;;;;;;;20.08;7.38;;;;;;;;;;5062828;28;20589;-73
2023/10/23 09:11:54;;;;;;;25.65;7.63;;;;;;;;;;5061776;28;20037;-79
2023/10/23 09:14:39;;;;;;;19.80;7.53;;;;;;;;;;5061772;28;20044;-82
2023/10/23 09:17:11;;;;;;;17.33;7.60;;;;;;;;;;5059571;28;20406;-75
2023/10/23 09:20:01;;;;;;;19.88;7.70;;;;;;;;;;5062354;28;20395;-74
2023/10/23 09:22:36;;;;;;;19.42;7.82;;;;;;;;;;5060497;28;20656;-75
2023/10/23 09:25:25;;;;;;;18.65;7.45;;;;;;;;;;5061570;28;20483;-75
2023/10/23 09:28:17;;;;;;;20.52;8.32;;;;;;;;;;5060387;28;20053;-81
2023/10/23 09:31:24;;;;;;;17.42;7.80;;;;;;;;;;5058878;28;20055;-73
2023/10/23 09:34:23;;;;;;;17.75;7.88;;;;;;;;;;5061373;28;20052;-74
2023/10/23 09:36:55;;;;;;;15.98;8.88;;;;;;;;;;5060448;28;20039;-72
2023/10/23 09:39:39;;;;;;;16.13;8.07;;;;;;;;;;5061718;28;20391;-77
2023/10/23 09:42:11;;;;;;;20.70;7.55;;;;;;;;;;5061496;28;20526;-76
2023/10/23 09:44:43;;;;;;;21.38;8.10;;;;;;;;;;5061544;28;20036;-76
2023/10/23 09:47:15;;;;;;;17.52;8.50;;;;;;;;;;5061617;28;20059;-74
2023/10/23 09:49:48;;;;;;;16.33;7.22;;;;;;;;;;5061415;28;20048;-79
2023/10/23 09:52:24;;;;;;;17.02;7.88;;;;;;;;;;5062047;28;20048;-76
2023/10/23 09:55:26;;;;;;;17.92;7.65;;;;;;;;;;5060143;28;20045;-75
2023/10/23 09:58:12;;;;;;;17.45;7.47;;;;;;;;;;5061004;28;20071;-75
2023/10/23 10:01:22;;;;;;;16.60;7.38;;;;;;;;;;5062223;28;20408;-77
2023/10/23 10:04:37;;;;;;;22.63;7.38;;;;;;;;;;5058383;28;20415;-74
2023/10/23 10:07:29;;;;;;;26.55;7.97;;;;;;;;;;5012043;28;20056;-76
2023/10/23 10:10:05;;;;;;;15.98;8.77;;;;;;;;;;5064858;28;20037;-74
2023/10/23 10:12:50;;;;;;;21.92;8.73;;;;;;;;;;5065654;28;20041;-77
2023/10/23 10:16:22;;;;;;;17.63;7.90;;;;;;;;;;5062811;28;20388;-75
2023/10/23 10:19:04;;;;;;;17.00;7.70;;;;;;;;;;5065042;28;20056;-75
2023/10/23 10:22:40;;;;;;;25.08;9.65;;;;;;;;;;5064512;28;20198;-75
2023/10/23 10:26:09;;;;;;;19.30;8.13;;;;;;;;;;5061172;28;20095;-73
2023/10/23 10:29:51;;;;;;;16.95;7.03;;;;;;;;;;5062303;28;20041;-75
2023/10/23 10:32:35;;;;;;;27.77;7.43;;;;;;;;;;5064341;28;20052;-75
2023/10/23 10:35:28;;;;;;;14.80;6.93;;;;;;;;;;5064987;28;20664;-75
2023/10/23 10:38:56;;;;;;;14.05;6.68;;;;;;;;;;5064550;28;20416;-73
2023/10/23 10:42:09;;;;;;;15.95;6.63;;;;;;;;;;5064349;28;20040;-74
2023/10/23 10:44:59;;;;;;;14.63;5.97;;;;;;;;;;5064914;28;20514;-74
2023/10/23 10:47:39;;;;;;;13.70;6.72;;;;;;;;;;5064808;28;20045;-75
2023/10/23 10:50:11;;;;;;;16.55;7.82;;;;;;;;;;5064632;28;20047;-74
2023/10/23 10:53:07;;;;;;;20.00;8.93;;;;;;;;;;5064542;28;20051;-76
2023/10/23 10:56:29;;;;;;;26.13;7.85;;;;;;;;;;5063922;28;20063;-77
2023/10/23 10:59:47;;;;;;;14.15;7.40;;;;;;;;;;5064775;28;20041;-74
2023/10/23 11:02:32;;;;;;;17.48;7.82;;;;;;;;;;5064373;28;20071;-75
2023/10/23 11:05:27;;;;;;;23.75;8.98;;;;;;;;;;5064702;28;20051;-77
2023/10/23 11:08:30;;;;;;;19.80;8.52;;;;;;;;;;5062671;28;20044;-75
2023/10/23 11:11:13;;;;;;;23.65;8.05;;;;;;;;;;5062838;28;20070;-75
2023/10/23 11:13:44;;;;;;;16.75;8.18;;;;;;;;;;5063779;28;20056;-75
2023/10/23 11:16:22;;;;;;;17.80;8.18;;;;;;;;;;5062916;28;20735;-76
2023/10/23 11:19:28;;;;;;;59.95;14.85;;;;;;;;;;5063347;28;20380;-79
2023/10/23 11:22:55;;;;;;;22.95;9.25;;;;;;;;;;5062706;28;20395;-78
2023/10/23 11:25:28;;;;;;;13.55;7.90;;;;;;;;;;5064340;28;20102;-75
2023/10/23 11:27:58;;;;;;;22.38;8.95;;;;;;;;;;5064180;28;20032;-75
2023/10/23 11:31:14;;;;;;;27.55;9.05;;;;;;;;;;5063870;28;20040;-73
2023/10/23 11:33:52;;;;;;;23.52;9.40;;;;;;;;;;5062679;28;20803;-76
2023/10/23 11:36:32;;;;;;;20.55;8.18;;;;;;;;;;5063373;28;20394;-73
2023/10/23 11:42:41;;;;;;;27.35;9.02;;;;;;;;;;5062874;28;20059;-73
2023/10/23 11:45:13;;;;;;;19.20;7.95;;;;;;;;;;5061440;28;20044;-74
2023/10/23 11:48:24;;;;;;;26.20;7.93;;;;;;;;;;5060615;28;20487;-73
2023/10/23 11:52:05;;;;;;;17.10;7.70;;;;;;;;;;5067080;28;20044;-75
2023/10/23 11:55:41;;;;;;;16.70;7.55;;;;;;;;;;5051526;28;20060;-75
2023/10/23 11:58:39;;;;;;;21.23;8.40;;;;;;;;;;5060752;28;20059;-72
2023/10/23 12:01:54;;;;;;;20.35;8.20;;;;;;;;;;5061466;28;20053;-79
2023/10/23 12:04:56;;;;;;;20.65;8.07;;;;;;;;;;5005691;28;20060;-76
2023/10/23 12:07:26;;;;;;;36.60;21.00;;;;;;;;;;5061295;28;20040;-73
2023/10/23 12:10:37;;;;;;;25.02;9.95;;;;;;;;;;5063955;28;20067;-75
2023/10/23 12:13:46;;;;;;;18.85;8.63;;;;;;;;;;5062371;28;20056;-76
2023/10/23 12:16:20;;;;;;;24.63;9.18;;;;;;;;;;5062575;28;20040;-77
2023/10/23 12:18:51;;;;;;;23.58;10.15;;;;;;;;;;5062927;28;20040;-74
2023/10/23 12:21:21;;;;;;;35.85;10.60;;;;;;;;;;5062501;28;20050;-73
2023/10/23 12:24:14;;;;;;;29.42;11.00;;;;;;;;;;5061887;28;20056;-75
2023/10/23 12:27:05;;;;;;;23.98;9.60;;;;;;;;;;5063614;28;20508;-73
2023/10/23 12:29:36;;;;;;;25.58;9.23;;;;;;;;;;5062578;28;20052;-75
2023/10/23 12:32:07;;;;;;;25.13;10.13;;;;;;;;;;5061735;28;20052;-74
2023/10/23 12:34:59;;;;;;;23.85;10.10;;;;;;;;;;5062331;28;20490;-82
2023/10/23 12:37:34;;;;;;;25.10;9.25;;;;;;;;;;5061225;28;20056;-82
2023/10/23 12:40:43;;;;;;;36.20;11.55;;;;;;;;;;5037441;28;20071;-82
2023/10/23 12:43:13;;;;;;;23.67;9.27;;;;;;;;;;5008577;28;20049;-82
2023/10/23 12:46:04;;;;;;;25.90;8.75;;;;;;;;;;5039079;28;20056;-74
2023/10/23 12:49:08;;;;;;;23.48;9.55;;;;;;;;;;5038352;28;20565;-74
2023/10/23 12:51:38;;;;;;;29.48;8.73;;;;;;;;;;5039666;28;20045;-73
2023/10/23 12:54:12;;;;;;;18.95;8.77;;;;;;;;;;5039532;28;20061;-74
2023/10/23 12:57:06;;;;;;;24.17;8.93;;;;;;;;;;5025000;28;20479;-75
2023/10/23 12:59:37;;;;;;;24.08;9.50;;;;;;;;;;5040024;28;20053;-79
2023/10/23 13:02:09;;;;;;;21.35;9.07;;;;;;;;;;5038113;28;20049;-73
2023/10/23 13:05:07;;;;;;;31.52;9.48;;;;;;;;;;5039457;28;20041;-76
2023/10/23 13:08:20;;;;;;;21.73;8.60;;;;;;;;;;5025578;28;20048;-72
2023/10/23 13:10:52;;;;;;;18.52;7.10;;;;;;;;;;5047172;28;20068;-75
2023/10/23 13:13:22;;;;;;;18.77;7.50;;;;;;;;;;5061689;28;20076;-77
2023/10/23 13:15:52;;;;;;;27.83;8.23;;;;;;;;;;5061918;28;20048;-73
2023/10/23 13:18:23;;;;;;;18.02;6.60;;;;;;;;;;5062481;28;20486;-75
2023/10/23 13:21:23;;;;;;;17.70;6.22;;;;;;;;;;5062773;28;20052;-77
2023/10/23 13:24:31;;;;;;;19.67;5.82;;;;;;;;;;5038936;28;20061;-74
2023/10/23 13:27:04;;;;;;;16.55;5.82;;;;;;;;;;5023033;28;21136;-72
2023/10/23 13:29:54;;;;;;;22.20;6.35;;;;;;;;;;5039087;28;20041;-76
2023/10/23 13:32:30;;;;;;;11.13;4.72;;;;;;;;;;5039652;28;20053;-75
2023/10/23 13:35:01;;;;;;;14.98;5.38;;;;;;;;;;5039294;28;20510;-75
2023/10/23 13:37:32;;;;;;;22.35;5.60;;;;;;;;;;5021518;28;20056;-81
2023/10/23 13:40:07;;;;;;;15.43;5.20;;;;;;;;;;5038583;28;20061;-72
2023/10/23 13:43:10;;;;;;;11.95;4.55;;;;;;;;;;5020464;28;20052;-75
2023/10/23 13:46:01;;;;;;;9.40;4.38;;;;;;;;;;5043102;28;20049;-73
2023/10/23 13:48:31;;;;;;;10.23;4.50;;;;;;;;;;5043194;28;20059;-75
2023/10/23 13:51:01;;;;;;;12.13;4.82;;;;;;;;;;4983157;28;20047;-76
2023/10/23 13:53:36;;;;;;;9.70;4.40;;;;;;;;;;4984081;28;20058;-77
2023/10/23 13:56:47;;;;;;;13.13;4.25;;;;;;;;;;4991766;28;20053;-77
2023/10/23 13:59:17;;;;;;;9.40;4.40;;;;;;;;;;5005909;28;20049;-75
2023/10/23 14:01:47;;;;;;;13.68;5.30;;;;;;;;;;5023067;28;20042;-76
2023/10/23 14:04:17;;;;;;;19.50;6.38;;;;;;;;;;5022935;28;20041;-73
2023/10/23 14:06:47;;;;;;;13.07;6.03;;;;;;;;;;5023179;28;20064;-76
2023/10/23 14:09:18;;;;;;;13.27;5.60;;;;;;;;;;5022543;28;20053;-76
2023/10/23 14:12:09;;;;;;;11.30;5.13;;;;;;;;;;5022645;28;20053;-77
2023/10/23 14:14:40;;;;;;;21.23;5.80;;;;;;;;;;5022375;28;20057;-75
2023/10/23 14:17:10;;;;;;;11.60;6.18;;;;;;;;;;5023205;28;20046;-76
2023/10/23 14:19:43;;;;;;;10.10;5.07;;;;;;;;;;5023167;28;20049;-76
2023/10/23 14:22:17;;;;;;;11.30;5.57;;;;;;;;;;5007359;28;20566;-74
2023/10/23 14:24:49;;;;;;;13.82;5.20;;;;;;;;;;5022795;28;20041;-77
2023/10/23 14:27:19;;;;;;;12.88;5.90;;;;;;;;;;5022549;28;20424;-73
2023/10/23 14:29:49;;;;;;;18.27;6.20;;;;;;;;;;5060549;28;20076;-75
2023/10/23 14:32:19;;;;;;;21.17;7.50;;;;;;;;;;5064574;28;20041;-72
2023/10/23 14:34:50;;;;;;;11.38;5.82;;;;;;;;;;5064680;28;20049;-80
2023/10/23 14:37:21;;;;;;;13.60;6.40;;;;;;;;;;5064594;28;20044;-75
2023/10/23 14:39:51;;;;;;;13.90;6.25;;;;;;;;;;5064896;28;20048;-78
2023/10/23 14:42:21;;;;;;;15.05;5.80;;;;;;;;;;5064538;28;20045;-75
2023/10/23 14:44:52;;;;;;;9.95;5.18;;;;;;;;;;5064771;28;20040;-72
2023/10/23 14:47:23;;;;;;;16.25;6.53;;;;;;;;;;5062706;28;20044;-75
2023/10/23 14:49:53;;;;;;;11.52;5.85;;;;;;;;;;5064909;28;20522;-77
2023/10/23 14:52:24;;;;;;;13.20;6.22;;;;;;;;;;5064923;28;20052;-75
2023/10/23 14:54:59;;;;;;;15.07;6.45;;;;;;;;;;5063898;28;20501;-77
2023/10/23 14:57:30;;;;;;;12.18;6.63;;;;;;;;;;5064909;28;20040;-78
2023/10/23 15:00:00;;;;;;;14.32;6.60;;;;;;;;;;5062877;28;20064;-74
2023/10/23 15:02:31;;;;;;;13.43;6.65;;;;;;;;;;5064355;28;20509;-74
2023/10/23 15:05:03;;;;;;;10.55;6.47;;;;;;;;;;5062328;28;20051;-75
2023/10/23 15:07:34;;;;;;;16.00;7.60;;;;;;;;;;5064656;28;20044;-74
2023/10/23 15:10:04;;;;;;;13.57;7.53;;;;;;;;;;5062509;28;20087;-77
2023/10/23 15:12:35;;;;;;;13.38;7.40;;;;;;;;;;5063364;28;20044;-75
2023/10/23 15:15:06;;;;;;;13.18;6.78;;;;;;;;;;5063989;28;20048;-75
2023/10/23 15:17:37;;;;;;;16.38;8.35;;;;;;;;;;5064265;28;20049;-77
2023/10/23 15:20:07;;;;;;;12.65;7.78;;;;;;;;;;5063024;28;20048;-75
2023/10/23 15:22:38;;;;;;;13.85;7.38;;;;;;;;;;5063935;28;20067;-80
2023/10/23 15:25:08;;;;;;;14.57;8.05;;;;;;;;;;5064121;28;20414;-75
2023/10/23 15:27:40;;;;;;;16.38;8.20;;;;;;;;;;5062428;28;20052;-74
2023/10/23 15:30:11;;;;;;;24.20;8.10;;;;;;;;;;5064041;28;20048;-77
2023/10/23 15:32:42;;;;;;;20.90;8.50;;;;;;;;;;5064172;28;20044;-76
2023/10/23 15:35:12;;;;;;;13.57;7.63;;;;;;;;;;5063803;28;20052;-74
2023/10/23 15:37:43;;;;;;;21.60;8.38;;;;;;;;;;5061375;28;20060;-76
2023/10/23 15:40:13;;;;;;;20.38;8.48;;;;;;;;;;5064475;28;20040;-77
2023/10/23 15:42:44;;;;;;;14.07;7.68;;;;;;;;;;5063456;28;20438;-76
2023/10/23 15:45:14;;;;;;;11.25;7.80;;;;;;;;;;5063117;28;20051;-76
2023/10/23 15:47:45;;;;;;;15.32;8.13;;;;;;;;;;5064172;28;20041;-74
2023/10/23 15:50:16;;;;;;;16.50;8.88;;;;;;;;;;5063241;28;20805;-74
2023/10/23 15:52:47;;;;;;;15.98;7.97;;;;;;;;;;5063400;28;20037;-73
2023/10/23 15:55:16;;;;;;;11.82;7.40;;;;;;;;;;5063244;28;20045;-76
2023/10/23 15:57:48;;;;;;;11.20;6.78;;;;;;;;;;5063338;28;20041;-75
2023/10/23 16:00:19;;;;;;;11.57;6.95;;;;;;;;;;5063151;28;20498;-76
2023/10/23 16:02:48;;;;;;;11.45;6.68;;;;;;;;;;5063755;28;20052;-75
2023/10/23 16:05:19;;;;;;;17.92;6.93;;;;;;;;;;5063428;28;20040;-74
2023/10/23 16:07:48;;;;;;;13.45;6.63;;;;;;;;;;5062935;28;20054;-75
2023/10/23 16:10:20;;;;;;;10.07;6.47;;;;;;;;;;5045230;28;20418;-77
2023/10/23 16:12:55;;;;;;;15.05;6.25;;;;;;;;;;5063301;28;20052;-74
2023/10/23 16:15:25;;;;;;;12.48;6.43;;;;;;;;;;5063246;28;20134;-75
2023/10/23 16:17:58;;;;;;;15.35;6.93;;;;;;;;;;5063248;28;20466;-74
2023/10/23 16:20:29;;;;;;;16.17;7.10;;;;;;;;;;5061441;28;20067;-75
2023/10/23 16:23:00;;;;;;;15.15;8.63;;;;;;;;;;5063077;28;20055;-73
2023/10/23 16:25:31;;;;;;;13.50;6.70;;;;;;;;;;5062292;28;20055;-75
2023/10/23 16:28:01;;;;;;;13.13;7.00;;;;;;;;;;5062293;28;20040;-78
2023/10/23 16:30:32;;;;;;;16.60;9.95;;;;;;;;;;5062349;28;20490;-82
2023/10/23 16:33:03;;;;;;;13.38;7.05;;;;;;;;;;5062687;28;20495;-76
2023/10/23 16:35:41;;;;;;;12.88;7.07;;;;;;;;;;5062936;28;20048;-76
2023/10/23 16:38:13;;;;;;;8.98;6.57;;;;;;;;;;5044617;28;20056;-74